Latest Weather Observations for Onslow Airport

IDW60801

Issued at 12:03 pm WST Monday 25 July 2016 (issued every 30 minutes, with the page automatically refreshed every 10 minutes)

About weather observations | Map of weather stations | Latest weather observations for WA | Other Formats
Station Details ID: 005017 Name: ONSLOW AIRPORT Lat: -21.67 Lon: 115.11 Height: 10.5 m
Data from the previous 72 hours. | See also: Recent months at Onslow Airport
Date/Time
WST
Temp
°C
App
Temp
°C
Dew
Point
°C
Rel
Hum
%
Delta-T
°C
Wind Press
QNH
hPa
Press
MSL
hPa
Rain since
9am
mm
Dir  Spd
km/h
Gust
km/h
Spd
kts
Gust
kts
25/12:00pm 25.9 24.6 15.9 54 6.1 SE 17 20 9 11 1018.7 1018.7 0.0
25/11:30am 25.3 23.8 16.2 57 5.6 SE 19 22 10 12 1019.1 1019.1 0.0
25/11:00am 24.8 23.6 16.2 58 5.2 SE 17 20 9 11 1019.5 1019.5 0.0
25/10:30am 23.4 22.2 16.2 64 4.4 SE 17 19 9 10 1020.0 1020.0 0.0
25/10:00am 22.4 21.6 16.0 67 3.9 SE 15 17 8 9 1020.2 1020.2 0.0
25/09:30am 20.8 20.3 15.8 73 3.0 ESE 13 15 7 8 1020.2 1020.2 0.0
25/09:00am 19.7 19.1 15.6 77 2.4 SE 13 17 7 9 1020.0 1020.0 0.8
25/08:30am 18.5 17.7 15.2 81 1.9 SE 13 17 7 9 1019.8 1019.8 0.8
25/08:00am 17.5 17.0 15.8 90 1.0 SE 13 19 7 10 1019.5 1019.5 0.8
25/07:30am 16.1 16.0 15.0 93 0.6 SSE 9 11 5 6 1019.3 1019.3 0.8
25/07:00am 15.9 15.4 14.9 94 0.6 SSE 11 13 6 7 1018.9 1018.9 0.8
25/06:30am 15.9 15.4 14.9 94 0.6 SSE 11 13 6 7 1018.6 1018.6 0.8
25/06:00am 16.3 15.6 15.3 94 0.6 SSE 13 15 7 8 1018.1 1018.1 0.8
25/05:30am 16.3 16.3 15.3 94 0.6 S 9 11 5 6 1018.1 1018.1 0.8
25/05:00am 16.7 16.5 15.7 94 0.6 SSW 11 13 6 7 1018.1 1018.1 0.8
25/04:30am 17.1 17.0 16.1 94 0.6 SSW 11 13 6 7 1018.0 1018.0 0.8
25/04:00am 17.1 17.0 16.1 94 0.6 S 11 13 6 7 1017.8 1017.8 0.8
25/03:30am 17.2 17.1 16.1 93 0.7 S 11 11 6 6 1018.0 1018.0 0.8
25/03:00am 17.5 17.2 16.4 93 0.7 S 13 17 7 9 1017.9 1017.9 0.8
25/02:30am 17.7 17.0 16.4 92 0.8 S 15 17 8 9 1018.1 1018.1 0.8
25/02:00am 17.8 17.9 16.5 92 0.8 S 11 13 6 7 1018.3 1018.3 0.8
25/01:30am 18.0 18.1 16.5 91 0.9 SSE 11 15 6 8 1018.4 1018.4 0.8
25/01:00am 17.9 17.6 16.4 91 0.9 SSE 13 15 7 8 1018.6 1018.6 0.8
25/12:30am 18.0 17.7 16.5 91 0.9 S 13 15 7 8 1018.5 1018.5 0.8
25/12:00am 18.0 18.0 16.3 90 1.0 S 11 15 6 8 1018.5 1018.5 0.8
 
Date/Time
WST
Temp
°C
App
Temp
°C
Dew
Point
°C
Rel
Hum
%
Delta-T
°C
Wind Press
QNH
hPa
Press
MSL
hPa
Rain since
9am
mm
Dir  Spd
km/h
Gust
km/h
Spd
kts
Gust
kts
24/11:30pm 18.7 18.0 16.3 86 1.4 SE 15 19 8 10 1018.5 1018.5 0.8
24/11:00pm 19.0 17.3 16.2 84 1.7 ESE 20 24 11 13 1018.6 1018.6 0.8
24/10:30pm 18.9 16.5 16.3 85 1.6 E 24 30 13 16 1018.6 1018.6 0.8
24/10:00pm 18.5 16.1 16.3 87 1.3 ESE 24 30 13 16 1018.8 1018.8 0.8
24/09:30pm 18.4 15.7 16.6 89 1.1 ESE 26 33 14 18 1019.0 1019.0 0.8
24/09:00pm 18.4 16.1 16.6 89 1.1 ESE 24 30 13 16 1019.2 1019.2 0.8
24/08:30pm 18.5 15.9 16.8 90 1.0 SE 26 32 14 17 1019.2 1019.2 0.8
24/08:00pm 18.4 16.6 16.9 91 0.9 SE 22 28 12 15 1019.1 1019.1 0.8
24/07:30pm 18.5 16.7 17.0 91 0.9 SE 22 30 12 16 1018.8 1018.8 0.8
24/07:00pm 18.6 16.9 17.1 91 0.9 SE 22 28 12 15 1018.5 1018.5 0.8
24/06:30pm 18.6 16.5 17.1 91 0.9 SE 24 28 13 15 1018.2 1018.2 0.8
24/06:00pm 18.6 16.2 17.3 92 0.8 SSE 26 33 14 18 1018.1 1018.1 0.8
24/05:30pm 18.6 15.8 17.3 92 0.8 SSE 28 33 15 18 1018.0 1018.0 0.8
24/05:00pm 18.8 16.5 17.6 93 0.7 S 26 33 14 18 1018.0 1018.0 0.8
24/04:30pm 19.0 17.2 17.8 93 0.7 SSE 24 32 13 17 1017.7 1017.7 0.8
24/04:00pm 19.1 18.1 17.6 91 0.9 SSE 19 24 10 13 1017.7 1017.7 0.8
24/03:30pm 19.2 18.3 17.7 91 0.9 S 19 24 10 13 1017.9 1017.9 0.4
24/03:00pm 18.9 16.1 17.2 90 1.0 S 28 35 15 19 1017.4 1017.4 0.2
24/02:30pm 20.0 17.7 16.6 81 2.1 S 24 30 13 16 1017.2 1017.2 0.0
24/02:00pm 20.7 19.2 16.3 76 2.6 S 19 24 10 13 1017.7 1017.7 0.0
24/01:30pm 20.9 18.8 16.1 74 2.9 S 22 28 12 15 1017.6 1017.6 0.0
24/01:00pm 21.3 19.5 16.0 72 3.2 SSE 20 26 11 14 1017.8 1017.8 0.0
24/12:30pm 20.6 19.4 16.0 75 2.8 SE 17 20 9 11 1018.3 1018.3 0.0
24/12:00pm 20.2 19.4 16.2 78 2.4 SE 15 19 8 10 1018.9 1018.9 0.0
24/11:30am 19.3 17.7 16.0 81 2.0 SE 19 24 10 13 1019.3 1019.3 0.0
24/11:00am 18.9 16.0 16.0 83 1.7 SE 26 32 14 17 1019.0 1019.0 0.0
24/10:30am 18.5 17.0 16.3 87 1.3 SE 19 22 10 12 1019.5 1019.5 0.0
24/10:00am 17.9 16.7 16.1 89 1.1 SE 17 20 9 11 1019.8 1019.8 0.0
24/09:30am 17.4 15.1 15.7 90 1.0 SE 22 28 12 15 1019.3 1019.3 0.0
24/09:00am 17.1 14.1 15.8 92 0.8 SE 26 32 14 17 1018.6 1018.6 2.2
24/08:30am 16.7 14.7 15.4 92 0.8 SSE 20 26 11 14 1018.6 1018.6 2.2
24/08:00am 16.6 15.1 15.3 92 0.8 SSE 17 20 9 11 1018.5 1018.5 2.2
24/07:30am 16.5 15.4 15.2 92 0.8 SE 15 17 8 9 1018.2 1018.2 2.2
24/07:00am 16.3 14.7 15.0 92 0.7 SSE 17 22 9 12 1017.7 1017.7 2.2
24/06:30am 16.3 13.4 15.0 92 0.8 SE 24 30 13 16 1017.1 1017.1 2.2
24/06:00am 16.3 13.0 15.0 92 0.7 SE 26 33 14 18 1016.6 1016.6 2.2
24/05:30am 16.2 12.5 14.9 92 0.7 SE 28 35 15 19 1016.2 1016.2 2.2
24/05:00am 16.2 12.2 15.1 93 0.6 SSE 30 37 16 20 1016.4 1016.4 2.0
24/04:30am 16.1 13.2 15.0 93 0.6 S 24 33 13 18 1016.8 1016.8 2.0
24/04:00am 16.2 12.9 15.1 93 0.6 SSE 26 32 14 17 1016.9 1016.9 1.8
24/03:30am 16.2 12.9 14.9 92 0.7 S 26 32 14 17 1017.1 1017.1 1.2
24/03:00am 16.4 14.2 14.8 90 0.9 SSW 20 24 11 13 1017.6 1017.6 1.0
24/02:30am 17.1 15.7 14.6 85 1.4 S 15 20 8 11 1018.0 1018.0 0.2
24/02:00am 17.4 15.7 14.7 84 1.6 SSE 17 20 9 11 1018.1 1018.1 0.2
24/01:30am 17.5 16.1 14.6 83 1.7 SSE 15 19 8 10 1018.2 1018.2 0.2
24/01:00am 17.5 16.1 14.6 83 1.7 SSE 15 20 8 11 1018.1 1018.1 0.2
24/12:30am 17.5 15.4 14.6 83 1.7 SSE 19 24 10 13 1018.3 1018.3 0.2
24/12:00am 17.5 15.3 14.8 84 1.6 SSE 20 26 11 14 1018.2 1018.2 0.2
 
Date/Time
WST
Temp
°C
App
Temp
°C
Dew
Point
°C
Rel
Hum
%
Delta-T
°C
Wind Press
QNH
hPa
Press
MSL
hPa
Rain since
9am
mm
Dir  Spd
km/h
Gust
km/h
Spd
kts
Gust
kts
23/11:30pm 17.5 13.9 15.3 87 1.3 SSE 28 33 15 18 1017.8 1017.8 0.2
23/11:00pm 17.5 14.7 15.3 87 1.3 SSE 24 35 13 19 1018.2 1018.2 0.2
23/10:30pm 17.6 15.0 15.8 89 1.1 SSE 24 32 13 17 1018.5 1018.5 0.2
23/10:00pm 17.7 15.2 16.2 91 0.9 SSE 24 32 13 17 1018.0 1018.0 0.2
23/09:30pm 17.9 17.0 16.9 94 0.6 SSE 17 20 9 11 1018.0 1018.0 0.2
23/09:00pm 17.9 16.4 16.8 93 0.7 SSE 20 24 11 13 1017.9 1017.9 0.2
23/08:30pm 18.0 17.9 16.9 93 0.7 SSE 13 17 7 9 1017.9 1017.9 0.2
23/08:00pm 17.9 17.4 16.8 93 0.7 SSE 15 19 8 10 1017.4 1017.4 0.2
23/07:30pm 17.7 16.7 16.6 93 0.7 SE 17 22 9 12 1017.0 1017.0 0.2
23/07:00pm 17.6 15.9 16.3 92 0.8 SE 20 26 11 14 1016.8 1016.8 0.2
23/06:30pm 17.6 15.3 15.8 89 1.1 SSE 22 28 12 15 1017.0 1017.0 0.2
23/06:00pm 18.1 16.3 15.9 87 1.3 SSE 20 24 11 13 1017.2 1017.2 0.0
23/05:30pm 18.6 16.7 15.8 84 1.7 SSE 20 26 11 14 1017.1 1017.1 0.0
23/05:00pm 19.9 16.5 15.7 77 2.5 SSE 28 33 15 18 1016.8 1016.8 0.0
23/04:30pm 20.2 16.8 15.8 76 2.6 SE 28 33 15 18 1016.4 1016.4 0.0
23/04:00pm 20.3 16.9 15.9 76 2.6 SSE 28 33 15 18 1016.5 1016.5 0.0
23/03:30pm 20.3 17.7 15.9 76 2.6 SSE 24 30 13 16 1016.7 1016.7 0.0
23/03:00pm 20.8 17.6 15.4 71 3.2 SSE 26 35 14 19 1016.7 1016.7 0.0
23/02:30pm 21.5 19.4 15.1 67 3.8 SSE 20 28 11 15 1016.8 1016.8 0.0
23/02:00pm 22.4 20.9 15.3 64 4.2 SSE 17 26 9 14 1017.0 1017.0 0.0
23/01:30pm 22.7 21.2 15.3 63 4.4 SSE 17 20 9 11 1017.1 1017.1 0.0
23/01:00pm 22.0 20.4 14.9 64 4.2 SSE 17 22 9 12 1017.2 1017.2 0.0
23/12:30pm 21.6 21.0 14.7 65 4.1 SE 11 17 6 9 1017.8 1017.8 0.0
23/12:00pm 20.9 20.7 14.8 68 3.6 SE 9 17 5 9 1018.0 1018.0 0.0
23/11:30am 21.1 21.5 14.7 67 3.8 SE 6 11 3 6 1018.3 1018.3 0.0
23/11:00am 20.0 20.7 14.6 71 3.1 E 4 9 2 5 1018.5 1018.5 0.0
23/10:30am 19.7 19.0 14.3 71 3.1 SSE 11 15 6 8 1018.5 1018.5 0.0
23/10:00am 19.4 17.6 14.4 73 2.9 SSE 17 19 9 10 1018.3 1018.3 0.0
23/09:30am 18.9 16.4 14.2 74 2.7 ESE 20 26 11 14 1017.9 1017.9 0.0
23/09:00am 18.1 14.8 14.0 77 2.3 SE 24 28 13 15 1017.9 1017.9 0.4
23/08:30am 17.9 16.3 14.0 78 2.2 ESE 15 22 8 12 1017.8 1017.8 0.4
23/08:00am 17.6 12.7 13.7 78 2.2 SSE 32 39 17 21 1016.9 1016.9 0.4
23/07:30am 17.0 13.2 13.7 81 1.9 S 26 33 14 18 1017.3 1017.3 0.4
23/07:00am 17.4 13.9 13.5 78 2.2 SSE 24 30 13 16 1017.0 1017.0 0.4
23/06:30am 16.8 13.4 13.7 82 1.8 S 24 32 13 17 1017.3 1017.3 0.4
23/06:00am 16.6 13.2 13.7 83 1.6 SSW 24 32 13 17 1017.4 1017.4 0.4
23/05:30am 16.8 14.0 14.3 85 1.4 SSW 22 30 12 16 1017.1 1017.1 0.4
23/05:00am 17.2 14.8 14.5 84 1.5 ESE 20 30 11 16 1016.9 1016.9 0.4
23/04:30am 16.8 15.1 14.6 87 1.3 SE 17 19 9 10 1016.9 1016.9 0.4
23/04:00am 16.7 14.9 14.5 87 1.3 SE 17 20 9 11 1017.2 1017.2 0.4
23/03:30am 17.0 15.1 14.3 84 1.5 SSE 17 20 9 11 1017.1 1017.1 0.4
23/03:00am 16.9 15.5 14.4 85 1.4 SSE 15 20 8 11 1017.3 1017.3 0.4
23/02:30am 16.7 14.5 14.3 86 1.4 SSE 19 22 10 12 1017.5 1017.5 0.4
23/02:00am 16.7 14.5 14.3 86 1.4 SSE 19 24 10 13 1017.6 1017.6 0.4
23/01:30am 16.8 15.1 14.6 87 1.3 S 17 20 9 11 1018.2 1018.2 0.4
23/01:00am 16.8 16.1 14.4 86 1.4 SSE 11 15 6 8 1018.4 1018.4 0.4
23/12:30am 16.8 14.9 14.3 85 1.4 S 17 20 9 11 1018.5 1018.5 0.4
23/12:00am 17.2 16.3 13.7 80 2.0 SSW 11 17 6 9 1018.9 1018.9 0.4
 
Date/Time
WST
Temp
°C
App
Temp
°C
Dew
Point
°C
Rel
Hum
%
Delta-T
°C
Wind Press
QNH
hPa
Press
MSL
hPa
Rain since
9am
mm
Dir  Spd
km/h
Gust
km/h
Spd
kts
Gust
kts
22/11:30pm 17.3 16.0 13.8 80 2.0 S 13 17 7 9 1019.0 1019.0 0.4
22/11:00pm 17.3 15.4 14.2 82 1.8 SSE 17 20 9 11 1018.7 1018.7 0.4
22/10:30pm 17.2 14.3 13.9 81 1.9 SSE 22 30 12 16 1018.4 1018.4 0.4
22/10:00pm 17.3 15.0 14.0 81 1.9 SSE 19 28 10 15 1018.2 1018.2 0.4
22/09:30pm 17.4 14.9 14.1 81 1.9 SSE 20 24 11 13 1018.3 1018.3 0.4
22/09:00pm 17.9 15.9 13.8 77 2.3 SSE 17 20 9 11 1018.3 1018.3 0.4
22/08:30pm 17.8 16.6 14.1 79 2.1 SSE 13 15 7 8 1018.3 1018.3 0.4
22/08:00pm 17.6 16.8 13.9 79 2.1 SSE 11 13 6 7 1018.3 1018.3 0.4
22/07:30pm 17.7 15.2 14.0 79 2.1 SSE 20 26 11 14 1017.7 1017.7 0.4
22/07:00pm 17.7 15.7 13.8 78 2.2 SSE 17 20 9 11 1017.8 1017.8 0.4
22/06:30pm 18.0 14.9 13.5 75 2.5 SE 22 26 12 14 1017.1 1017.1 0.4
22/06:00pm 17.9 13.9 13.0 73 2.7 SE 26 33 14 18 1016.6 1016.6 0.4
22/05:30pm 18.1 13.3 12.8 71 3.0 SE 30 39 16 21 1016.3 1016.3 0.4
22/05:00pm 18.6 14.8 12.4 67 3.4 SE 24 30 13 16 1016.8 1016.8 0.4
22/04:30pm 19.2 14.8 11.7 62 4.1 SE 26 33 14 18 1017.0 1017.0 0.4
22/04:00pm 19.4 14.6 11.7 61 4.2 SSE 28 35 15 19 1016.8 1016.8 0.4
22/03:30pm 19.5 14.3 11.5 60 4.4 SE 30 35 16 19 1016.7 1016.7 0.4
22/03:00pm 19.4 13.6 11.4 60 4.4 SE 33 41 18 22 1016.7 1016.7 0.4
22/02:30pm 19.2 13.5 11.0 59 4.5 SSE 32 41 17 22 1016.6 1016.6 0.4
22/02:00pm 19.3 13.4 11.3 60 4.4 SSE 33 41 18 22 1016.9 1016.9 0.4
22/01:30pm 18.9 13.2 11.7 63 4.0 SSE 33 44 18 24 1017.1 1017.1 0.4
22/01:00pm 18.6 12.8 11.4 63 3.9 SSE 33 41 18 22 1017.7 1017.7 0.4
22/12:30pm 18.5 13.0 12.3 67 3.4 SSE 33 43 18 23 1018.0 1018.0 0.4

Other Formats:

Comma delimited format used in spreadsheet applications
http://www.bom.gov.au/fwo/IDW60801/IDW60801.95305.axf

JavaScript Object Notation format (JSON) in row-major order
http://www.bom.gov.au/fwo/IDW60801/IDW60801.95305.json